Time;durP1;ratioP1;P1;durP2;ratioP2;P2;SDS_P1;SDS_P2;PMS_P1;PMS_P2;Temp;Humidity;BMP_temperature;BMP_pressure;BME280_temperature;BME280_humidity;BME280_pressure;Samples;Min_cycle;Max_cycle;Signal;HPM_P1;HPM_P2
2021/05/19 00:00:18;;;;;;;6.30;5.23;;;10.40;99.90;;;11.52;100.00;100026.41;5025738;28;20571;-61
2021/05/19 00:02:44;;;;;;;5.97;4.90;;;10.40;99.90;;;11.50;100.00;100028.41;5025476;28;20634;-60
2021/05/19 00:05:12;;;;;;;7.87;5.10;;;10.30;99.90;;;11.48;100.00;100025.94;5025765;28;21000;-61
2021/05/19 00:07:38;;;;;;;6.17;5.20;;;10.30;99.90;;;11.53;100.00;100028.09;5025508;28;20791;-61
2021/05/19 00:10:07;;;;;;;6.37;5.77;;;10.30;99.90;;;11.54;100.00;100035.13;5025467;28;20710;-62
2021/05/19 00:12:35;;;;;;;6.73;6.13;;;10.30;99.90;;;11.48;100.00;100030.47;5025041;28;20229;-61
2021/05/19 00:15:05;;;;;;;5.43;4.93;;;10.30;99.90;;;11.37;100.00;100034.31;5026069;28;20335;-62
2021/05/19 00:17:41;;;;;;;6.07;4.93;;;10.20;99.90;;;11.38;100.00;100029.78;5025173;28;20424;-61
2021/05/19 00:20:09;;;;;;;5.30;4.80;;;10.20;99.90;;;11.39;100.00;100023.41;5025246;28;20451;-61
2021/05/19 00:22:36;;;;;;;5.80;5.20;;;10.20;99.90;;;11.36;100.00;100027.28;5025836;28;20429;-61
2021/05/19 00:26:02;;;;;;;5.90;5.30;;;10.20;99.90;;;11.33;100.00;100024.94;5025554;28;20256;-60
2021/05/19 00:32:54;;;;;;;6.60;5.53;;;10.10;99.90;;;11.34;100.00;100029.31;5022048;28;20277;-61
2021/05/19 00:39:46;;;;;;;6.03;5.43;;;10.10;99.90;;;11.30;100.00;100030.63;5023006;28;20606;-61
2021/05/19 00:43:03;;;;;;;6.50;5.37;;;10.00;99.90;;;11.28;100.00;100035.31;5006007;28;20319;-61
2021/05/19 00:49:48;;;;;;;6.73;6.13;;;10.00;99.90;;;11.16;100.00;100031.31;5000712;28;20508;-60
2021/05/19 00:52:59;;;;;;;7.90;5.60;;;9.90;99.90;;;11.11;100.00;100042.53;5005514;28;20725;-62
2021/05/19 00:59:54;;;;;;;7.03;6.33;;;9.80;99.90;;;11.11;100.00;100045.22;5023821;28;20618;-62
2021/05/19 01:03:30;;;;;;;7.00;6.30;;;9.80;99.90;;;11.06;100.00;100044.88;5024238;28;21071;-62
2021/05/19 01:07:24;;;;;;;6.53;5.97;;;9.80;99.90;;;11.01;100.00;100046.38;5005945;28;20222;-62
2021/05/19 01:14:25;;;;;;;8.30;6.37;;;9.60;99.90;;;10.94;100.00;100037.34;5024670;28;20324;-62
2021/05/19 01:17:42;;;;;;;7.10;6.40;;;9.60;99.90;;;10.86;100.00;100035.50;5024348;28;20337;-62
2021/05/19 01:20:56;;;;;;;7.20;6.37;;;9.60;99.90;;;10.82;100.00;100033.31;5024076;28;20524;-62
2021/05/19 01:24:08;;;;;;;6.20;5.60;;;9.50;99.90;;;10.75;100.00;100031.31;5024619;28;20699;-61
2021/05/19 01:27:35;;;;;;;6.60;5.90;;;9.40;99.90;;;10.72;100.00;100030.81;5005568;28;20847;-62
2021/05/19 01:33:41;;;;;;;6.50;5.90;;;9.30;99.90;;;10.65;100.00;100038.63;4994130;28;20614;-61
2021/05/19 01:36:11;;;;;;;8.03;6.20;;;9.20;99.90;;;10.66;100.00;100045.66;5024062;28;20277;-61
2021/05/19 01:38:38;;;;;;;6.10;5.50;;;9.20;99.90;;;10.64;100.00;100044.16;5024953;28;20245;-61
2021/05/19 01:41:05;;;;;;;5.97;5.43;;;9.20;99.90;;;10.64;100.00;100041.47;5023404;28;20405;-61
2021/05/19 01:43:44;;;;;;;6.30;5.70;;;9.10;99.90;;;10.57;100.00;100035.94;5005152;28;20632;-61
2021/05/19 01:46:28;;;;;;;7.17;5.70;;;9.10;99.90;;;10.54;100.00;100040.78;5024325;28;20448;-61
2021/05/19 01:48:58;;;;;;;6.70;5.73;;;9.10;99.90;;;10.48;100.00;100046.81;5023665;28;20800;-60
2021/05/19 01:51:25;;;;;;;6.50;5.93;;;9.00;99.90;;;10.43;100.00;100052.63;5023519;28;20670;-62
2021/05/19 01:56:59;;;;;;;6.53;5.93;;;9.00;99.90;;;10.37;100.00;100055.97;5021680;28;20462;-61
2021/05/19 01:59:27;;;;;;;7.30;6.60;;;8.90;99.90;;;10.34;100.00;100061.63;5005429;28;20730;-62
2021/05/19 02:01:57;;;;;;;6.77;6.17;;;8.90;99.90;;;10.32;100.00;100064.47;5025701;28;20360;-61
2021/05/19 02:04:25;;;;;;;6.90;6.20;;;8.90;99.90;;;10.29;100.00;100066.63;5007901;28;20560;-61
2021/05/19 02:06:57;;;;;;;8.83;6.47;;;8.80;99.90;;;10.22;100.00;100069.13;5008712;28;20662;-61
2021/05/19 02:09:53;;;;;;;6.73;6.13;;;8.80;99.90;;;10.18;100.00;100066.88;5017186;28;20912;-61
2021/05/19 02:12:21;;;;;;;7.13;6.27;;;8.70;99.90;;;10.19;100.00;100071.28;5008511;28;20394;-61
2021/05/19 02:14:51;;;;;;;7.30;6.53;;;8.70;99.90;;;10.18;100.00;100070.44;5008025;28;20238;-61
2021/05/19 02:17:21;;;;;;;7.07;6.37;;;8.70;99.90;;;10.11;100.00;100071.22;5007169;28;20657;-61
2021/05/19 02:19:48;;;;;;;6.10;5.50;;;8.70;99.90;;;10.05;100.00;100067.34;5008334;28;20341;-60
2021/05/19 02:22:14;;;;;;;6.33;5.73;;;8.60;99.90;;;10.03;100.00;100069.31;5008398;28;20615;-61
2021/05/19 02:24:54;;;;;;;6.90;6.20;;;8.60;99.90;;;10.00;100.00;100070.50;5027293;28;20911;-60
2021/05/19 02:27:22;;;;;;;6.13;5.57;;;8.60;99.90;;;10.00;100.00;100077.69;5008093;28;20958;-61
2021/05/19 02:29:53;;;;;;;6.93;6.23;;;8.50;99.90;;;9.98;100.00;100080.50;5008699;28;20774;-61
2021/05/19 02:32:21;;;;;;;7.07;6.23;;;8.50;99.90;;;9.93;100.00;100077.47;5007788;28;20883;-61
2021/05/19 02:34:48;;;;;;;8.03;7.20;;;8.50;99.90;;;9.85;100.00;100071.25;5008619;28;20229;-61
2021/05/19 02:37:15;;;;;;;8.07;7.00;;;8.50;99.90;;;9.80;100.00;100073.53;5008324;28;20226;-61
2021/05/19 02:39:42;;;;;;;7.13;6.47;;;8.40;99.90;;;9.75;100.00;100073.19;5026924;28;20296;-61
2021/05/19 02:42:09;;;;;;;8.37;6.53;;;8.40;99.90;;;9.78;100.00;100063.00;5027218;28;20214;-61
2021/05/19 02:44:36;;;;;;;8.40;5.90;;;8.40;99.90;;;9.78;100.00;100071.03;5008185;28;20589;-61
2021/05/19 02:47:03;;;;;;;7.60;6.73;;;8.40;99.90;;;9.83;100.00;100079.41;5026525;28;20377;-61
2021/05/19 02:49:30;;;;;;;7.00;6.40;;;8.30;99.90;;;9.85;100.00;100081.94;5026187;28;20600;-61
2021/05/19 02:51:57;;;;;;;8.07;6.80;;;8.30;99.90;;;9.92;100.00;100080.28;5026251;28;20980;-61
2021/05/19 02:54:23;;;;;;;7.20;6.40;;;8.30;99.90;;;9.89;100.00;100084.13;5026506;28;20219;-62
2021/05/19 02:56:50;;;;;;;8.00;6.30;;;8.30;99.90;;;9.83;100.00;100083.94;5026043;28;20391;-61
2021/05/19 02:59:17;;;;;;;6.60;6.00;;;8.40;99.90;;;9.80;100.00;100084.22;5027198;28;20218;-61
2021/05/19 03:01:45;;;;;;;8.23;6.93;;;8.40;99.90;;;9.77;100.00;100085.38;5026165;28;20418;-61
2021/05/19 03:04:12;;;;;;;8.10;6.20;;;8.40;99.90;;;9.72;100.00;100087.69;5025846;28;20503;-61
2021/05/19 03:06:38;;;;;;;6.70;6.10;;;8.40;99.90;;;9.58;100.00;100082.94;5025979;28;20229;-61
2021/05/19 03:09:06;;;;;;;101.97;13.77;;;8.30;99.90;;;9.72;100.00;100085.88;5025267;28;20632;-59
2021/05/19 03:11:34;;;;;;;7.90;7.20;;;8.40;99.90;;;9.69;100.00;100090.69;5025318;28;20229;-60
2021/05/19 03:14:09;;;;;;;7.10;6.40;;;8.40;99.90;;;9.71;100.00;100089.53;5025334;28;20313;-62
2021/05/19 03:16:37;;;;;;;7.10;6.20;;;8.30;99.90;;;9.75;100.00;100086.56;5025917;28;21155;-61
2021/05/19 03:19:08;;;;;;;8.17;6.70;;;8.40;99.90;;;9.74;100.00;100083.03;5024889;28;20303;-61
2021/05/19 03:21:36;;;;;;;6.40;5.80;;;8.40;99.90;;;9.72;100.00;100091.22;5026337;28;20273;-60
2021/05/19 03:24:04;;;;;;;9.87;6.57;;;8.40;99.90;;;9.76;100.00;100089.06;5026909;28;20332;-60
2021/05/19 03:26:33;;;;;;;7.60;6.83;;;8.40;99.90;;;9.80;100.00;100093.09;5006938;28;20711;-61
2021/05/19 03:29:00;;;;;;;265.17;31.77;;;8.50;99.90;;;9.91;100.00;100089.31;5026020;28;20214;-61
2021/05/19 03:31:26;;;;;;;36.03;8.43;;;8.50;99.90;;;10.06;100.00;100090.41;5025730;28;20253;-61
2021/05/19 03:33:53;;;;;;;7.97;7.20;;;8.50;99.90;;;10.14;100.00;100093.09;5025802;28;20225;-59
2021/05/19 03:36:20;;;;;;;7.83;7.03;;;8.50;99.90;;;10.07;100.00;100092.91;5025617;28;20955;-62
2021/05/19 03:38:47;;;;;;;7.20;6.50;;;8.60;99.90;;;10.11;100.00;100095.28;5026382;28;20978;-62
2021/05/19 03:41:13;;;;;;;7.63;6.80;;;8.60;99.90;;;10.17;100.00;100090.09;5025464;28;20226;-61
2021/05/19 03:43:40;;;;;;;8.23;7.27;;;8.70;99.90;;;10.16;100.00;100090.25;5026434;28;20217;-62
2021/05/19 03:46:07;;;;;;;9.97;7.30;;;8.70;99.90;;;10.11;100.00;100095.28;5025577;28;20489;-62
2021/05/19 03:48:34;;;;;;;8.07;7.10;;;8.70;99.90;;;10.10;100.00;100091.75;5025529;28;20221;-61
2021/05/19 03:51:10;;;;;;;8.67;7.73;;;8.80;99.90;;;10.19;100.00;100093.50;5025368;28;20342;-63
2021/05/19 03:53:37;;;;;;;40.43;10.30;;;8.80;99.90;;;10.30;100.00;100101.22;5025656;28;20607;-60
2021/05/19 03:56:04;;;;;;;626.00;64.43;;;8.90;99.90;;;10.48;100.00;100095.78;5025637;28;20222;-61
2021/05/19 03:58:30;;;;;;;151.23;20.77;;;8.90;99.90;;;10.57;100.00;100096.66;5025747;28;20216;-60
2021/05/19 04:00:57;;;;;;;15.40;8.87;;;8.90;99.90;;;10.64;100.00;100103.84;5025928;28;20319;-60
2021/05/19 04:03:25;;;;;;;11.37;8.97;;;9.00;99.90;;;10.60;100.00;100102.53;5024853;28;20590;-60
2021/05/19 04:05:52;;;;;;;1784.37;204.20;;;9.10;99.90;;;10.82;100.00;100111.78;5025181;28;20464;-61
2021/05/19 04:08:18;;;;;;;600.47;61.23;;;9.10;99.90;;;10.83;100.00;100109.94;5025749;28;20607;-61
2021/05/19 04:10:45;;;;;;;736.93;78.40;;;9.20;99.90;;;10.78;100.00;100111.25;5025966;28;21067;-61
2021/05/19 04:13:12;;;;;;;206.03;29.53;;;9.30;99.90;;;10.89;100.00;100114.63;5024959;28;20260;-61
2021/05/19 04:15:38;;;;;;;11.77;10.20;;;9.30;99.90;;;10.80;100.00;100111.09;5025042;28;20778;-61
2021/05/19 04:18:05;;;;;;;11.10;9.93;;;9.40;99.90;;;10.82;100.00;100108.25;5024581;28;20588;-61
2021/05/19 04:20:31;;;;;;;10.93;9.43;;;9.50;99.90;;;10.83;100.00;100108.09;5025869;28;20831;-62
2021/05/19 04:22:58;;;;;;;10.47;9.23;;;9.50;99.90;;;10.83;100.00;100116.13;5025079;28;20226;-62
2021/05/19 04:25:24;;;;;;;9.47;8.57;;;9.60;99.90;;;10.86;100.00;100117.66;5025683;28;20524;-62
2021/05/19 04:27:52;;;;;;;9.87;8.27;;;9.60;99.90;;;10.89;100.00;100128.00;5024860;28;20280;-61
2021/05/19 04:30:19;;;;;;;9.53;8.63;;;9.60;99.90;;;10.83;100.00;100131.34;5028474;28;20563;-60
2021/05/19 04:32:45;;;;;;;9.50;8.53;;;9.60;99.90;;;10.83;100.00;100126.00;5028363;28;20536;-61
2021/05/19 04:35:13;;;;;;;9.43;8.50;;;9.60;99.90;;;10.85;100.00;100132.88;5025284;28;20342;-62
2021/05/19 04:37:40;;;;;;;9.57;8.57;;;9.60;99.90;;;10.81;100.00;100134.19;5057283;28;21214;-61
2021/05/19 04:40:08;;;;;;;10.63;8.43;;;9.60;99.90;;;10.85;100.00;100138.22;5025730;28;20476;-61
2021/05/19 04:42:35;;;;;;;10.20;9.20;;;9.60;99.90;;;10.84;100.00;100138.38;5024782;28;20261;-63
2021/05/19 04:45:05;;;;;;;10.80;9.80;;;9.60;99.90;;;10.84;100.00;100146.41;5025473;28;20565;-62
2021/05/19 04:47:31;;;;;;;11.97;9.37;;;9.60;99.90;;;10.87;100.00;100146.94;5024811;28;20576;-63
2021/05/19 04:49:58;;;;;;;11.23;10.00;;;9.60;99.90;;;10.89;100.00;100152.94;5024622;28;20473;-62
2021/05/19 04:52:24;;;;;;;10.87;9.80;;;9.60;99.90;;;10.93;100.00;100153.44;5005293;28;20507;-63
2021/05/19 04:54:51;;;;;;;13.97;10.73;;;9.60;99.90;;;11.01;100.00;100156.97;5024535;28;20671;-63
2021/05/19 04:57:17;;;;;;;14.30;11.33;;;9.60;99.90;;;11.18;100.00;100157.00;5024340;28;20493;-63
2021/05/19 04:59:44;;;;;;;14.77;12.20;;;9.70;99.90;;;11.35;100.00;100162.25;5024476;28;20712;-63
2021/05/19 05:02:11;;;;;;;14.10;12.53;;;9.80;99.90;;;11.48;100.00;100154.53;5024317;28;20226;-63
2021/05/19 05:04:37;;;;;;;14.73;12.50;;;9.90;99.90;;;11.59;100.00;100161.41;5024568;28;20478;-63
2021/05/19 05:07:04;;;;;;;15.10;12.50;;;10.00;99.90;;;11.53;100.00;100162.91;5022920;28;20343;-62
2021/05/19 05:09:30;;;;;;;14.83;13.23;;;10.20;99.90;;;11.59;100.00;100157.88;5018366;28;20789;-64
2021/05/19 05:11:57;;;;;;;16.03;13.70;;;10.30;99.90;;;11.50;100.00;100163.22;5023071;28;20249;-62
2021/05/19 05:14:23;;;;;;;15.50;13.80;;;10.40;99.90;;;11.49;100.00;100153.53;5024377;28;20548;-60
2021/05/19 05:16:50;;;;;;;14.17;12.73;;;10.50;99.90;;;11.70;100.00;100162.91;5018623;28;20229;-62
2021/05/19 05:19:17;;;;;;;14.13;12.70;;;10.50;99.90;;;11.60;100.00;100167.59;5025531;28;20635;-62
2021/05/19 05:21:44;;;;;;;16.13;12.37;;;10.60;99.90;;;11.63;100.00;100159.22;5024445;28;20230;-62
2021/05/19 05:24:11;;;;;;;14.30;13.00;;;10.70;99.90;;;11.64;100.00;100166.25;5024519;28;20250;-62
2021/05/19 05:26:38;;;;;;;14.37;12.87;;;10.70;99.90;;;11.80;100.00;100177.00;5025112;28;20230;-62
2021/05/19 05:29:05;;;;;;;14.33;12.83;;;10.80;99.90;;;11.89;100.00;100167.94;5027659;28;20901;-62
2021/05/19 05:31:32;;;;;;;13.90;12.50;;;10.80;99.90;;;11.90;100.00;100171.47;5008963;28;20346;-59
2021/05/19 05:33:58;;;;;;;13.93;12.60;;;10.90;99.90;;;11.81;100.00;100176.00;5028503;28;20217;-61
2021/05/19 05:36:26;;;;;;;15.43;13.70;;;11.00;99.90;;;11.90;100.00;100183.03;5028480;28;20485;-61
2021/05/19 05:38:52;;;;;;;14.53;13.03;;;11.00;99.90;;;12.01;100.00;100188.03;5028367;28;20213;-61
2021/05/19 05:41:54;;;;;;;13.47;12.07;;;11.10;99.90;;;11.98;100.00;100182.19;5027853;28;21025;-61
2021/05/19 05:45:06;;;;;;;13.93;12.53;;;11.10;99.90;;;12.06;100.00;100191.06;5009055;28;20397;-61
2021/05/19 05:48:17;;;;;;;14.23;12.60;;;11.20;99.90;;;12.11;100.00;100187.88;5027762;28;20246;-61
2021/05/19 05:51:29;;;;;;;13.30;11.70;;;11.20;99.90;;;12.02;100.00;100195.06;5027315;28;20335;-60
2021/05/19 05:58:19;;;;;;;13.47;12.07;;;11.30;99.90;;;12.17;100.00;100195.22;5027658;28;21053;-61
2021/05/19 06:04:58;;;;;;;13.20;11.90;;;11.40;99.90;;;12.09;100.00;100211.34;5024963;28;20240;-58
2021/05/19 06:08:22;;;;;;;13.53;12.23;;;11.40;99.90;;;12.22;100.00;100207.13;5026589;28;20551;-60
2021/05/19 06:11:34;;;;;;;14.63;13.13;;;11.40;99.90;;;12.24;100.00;100205.09;5027115;28;20685;-60
2021/05/19 06:14:45;;;;;;;13.60;12.10;;;11.50;99.90;;;12.34;100.00;100212.97;5027939;28;20221;-59
2021/05/19 06:17:57;;;;;;;14.90;13.30;;;11.50;99.90;;;12.50;100.00;100220.13;5008879;28;20236;-61
2021/05/19 06:21:08;;;;;;;12.63;11.40;;;11.60;99.90;;;12.48;100.00;100216.78;5027836;28;20944;-61
2021/05/19 06:24:19;;;;;;;12.00;10.83;;;11.70;99.90;;;12.51;100.00;100222.63;5026871;28;20509;-61
2021/05/19 06:27:32;;;;;;;13.03;11.70;;;11.80;99.90;;;12.82;100.00;100224.56;5026623;28;20229;-61
2021/05/19 06:30:43;;;;;;;11.03;9.90;;;11.90;99.90;;;12.57;100.00;100218.44;5027180;28;20618;-61
2021/05/19 06:33:55;;;;;;;8.83;7.93;;;12.00;99.90;;;12.62;100.00;100228.63;5022806;28;20233;-60
2021/05/19 06:37:06;;;;;;;9.50;8.20;;;12.10;99.90;;;12.72;100.00;100222.09;5027483;28;20230;-60
2021/05/19 06:40:17;;;;;;;9.83;8.43;;;12.20;99.90;;;12.73;100.00;100223.75;5026334;28;20245;-61
2021/05/19 06:43:29;;;;;;;10.03;8.17;;;12.20;99.90;;;12.74;100.00;100225.41;5027110;28;20229;-61
2021/05/19 06:46:40;;;;;;;8.07;7.27;;;12.30;99.90;;;12.65;100.00;100221.09;5027071;28;20647;-59
2021/05/19 06:49:51;;;;;;;6.07;5.57;;;12.40;99.90;;;12.85;100.00;100221.53;5026731;28;20230;-60
2021/05/19 06:53:02;;;;;;;5.33;4.83;;;12.40;99.90;;;12.69;100.00;100224.28;5026335;28;20486;-60
2021/05/19 06:56:14;;;;;;;6.40;5.90;;;12.40;99.90;;;12.53;100.00;100228.66;5027172;28;20336;-60
2021/05/19 06:59:26;;;;;;;6.70;5.57;;;12.40;99.90;;;12.62;100.00;100239.38;5028384;28;20462;-60
2021/05/19 07:02:38;;;;;;;7.57;5.33;;;12.40;99.90;;;12.85;100.00;100238.47;5026866;28;20317;-60
2021/05/19 07:05:49;;;;;;;5.67;5.17;;;12.50;99.90;;;12.64;100.00;100238.19;5025867;28;20519;-61
2021/05/19 07:09:00;;;;;;;6.23;5.73;;;12.50;99.90;;;12.69;100.00;100243.06;5007696;28;20564;-59
2021/05/19 07:12:12;;;;;;;5.80;5.30;;;12.50;99.90;;;12.69;100.00;100246.59;5026367;28;20225;-61
2021/05/19 07:15:24;;;;;;;5.67;5.07;;;12.50;99.90;;;12.73;100.00;100249.78;5025937;28;21133;-60
2021/05/19 07:18:57;;;;;;;5.77;5.13;;;12.50;99.90;;;12.74;100.00;100246.88;5013792;28;20463;-60
2021/05/19 07:22:08;;;;;;;5.53;5.03;;;12.60;99.90;;;12.70;100.00;100248.25;4943306;28;20376;-60
2021/05/19 07:28:36;;;;;;;4.30;3.90;;;12.70;99.90;;;13.06;100.00;100245.09;5025590;28;20490;-58
2021/05/19 07:31:48;;;;;;;4.17;3.83;;;12.90;99.90;;;13.22;100.00;100250.44;5026280;28;20577;-61
2021/05/19 07:34:59;;;;;;;4.40;3.83;;;13.00;99.90;;;13.13;100.00;100254.13;5026570;28;20221;-60
2021/05/19 07:38:11;;;;;;;4.60;3.83;;;13.00;99.90;;;13.18;100.00;100241.88;5023107;28;20574;-60
2021/05/19 07:41:22;;;;;;;4.17;3.77;;;13.00;99.90;;;13.08;100.00;100253.81;5018435;28;20472;-59
2021/05/19 07:44:33;;;;;;;4.47;3.67;;;13.10;99.90;;;13.21;100.00;100254.97;5026223;28;20356;-59
2021/05/19 07:47:46;;;;;;;4.30;3.90;;;13.10;99.90;;;13.48;100.00;100253.59;5025476;28;20328;-60
2021/05/19 07:50:57;;;;;;;3.20;2.90;;;13.20;99.90;;;13.88;100.00;100262.41;5025821;28;20935;-59
2021/05/19 07:54:10;;;;;;;2.70;2.40;;;13.30;99.90;;;13.58;100.00;100248.88;5026215;28;20232;-60
2021/05/19 07:57:25;;;;;;;2.90;2.50;;;13.40;99.90;;;13.72;100.00;100252.63;5022272;28;20244;-57
2021/05/19 08:00:47;;;;;;;1.90;1.80;;;13.60;99.90;;;13.49;100.00;100251.75;5026255;28;20571;-59
2021/05/19 08:03:59;;;;;;;2.40;2.20;;;13.70;99.90;;;13.62;100.00;100249.31;5025819;28;20736;-58
2021/05/19 08:07:11;;;;;;;2.23;2.03;;;13.80;99.90;;;13.45;100.00;100250.47;5025809;28;20261;-59
2021/05/19 08:10:44;;;;;;;2.30;2.10;;;13.80;99.90;;;13.38;100.00;100257.53;5026060;28;20332;-59
2021/05/19 08:13:55;;;;;;;2.97;2.70;;;13.70;99.90;;;13.26;100.00;100257.94;5025103;28;20259;-59
2021/05/19 08:17:06;;;;;;;3.57;3.27;;;13.60;99.90;;;13.08;100.00;100272.63;5025680;28;20245;-59
2021/05/19 08:20:20;;;;;;;3.87;3.37;;;13.50;99.90;;;13.24;100.00;100264.50;5015711;28;20541;-59
2021/05/19 08:23:32;;;;;;;3.47;3.17;;;13.30;99.90;;;13.00;100.00;100267.25;5025536;28;20437;-60
2021/05/19 08:26:43;;;;;;;4.67;3.80;;;13.20;99.90;;;13.09;100.00;100275.13;5025327;28;20486;-60
2021/05/19 08:29:54;;;;;;;3.73;3.37;;;13.10;99.90;;;12.89;100.00;100277.38;5023938;28;20348;-61
2021/05/19 08:33:06;;;;;;;3.43;3.13;;;13.00;99.90;;;12.93;100.00;100285.94;5019745;28;20226;-62
2021/05/19 08:36:18;;;;;;;3.40;3.10;;;12.90;99.90;;;12.95;100.00;100276.69;5020218;28;20434;-61
2021/05/19 08:39:30;;;;;;;4.23;3.03;;;12.80;99.90;;;13.14;100.00;100282.66;5021031;28;20254;-61
2021/05/19 08:42:54;;;;;;;4.03;3.10;;;12.70;99.90;;;13.19;100.00;100285.69;5023266;28;20306;-61
2021/05/19 08:46:05;;;;;;;3.30;3.00;;;12.70;99.90;;;12.94;100.00;100280.41;5022054;28;20554;-61
2021/05/19 08:49:18;;;;;;;3.30;3.00;;;12.60;99.90;;;13.16;100.00;100288.72;5019373;28;20247;-62
2021/05/19 08:52:33;;;;;;;3.13;2.90;;;12.60;99.90;;;13.43;100.00;100282.06;5024522;28;20328;-61
2021/05/19 08:55:45;;;;;;;2.90;2.70;;;12.70;99.90;;;13.17;100.00;100276.97;5022677;28;20684;-61
2021/05/19 08:58:57;;;;;;;3.27;2.53;;;12.70;99.90;;;13.66;100.00;100278.38;5021787;28;20210;-60
2021/05/19 09:06:17;;;;;;;2.40;2.20;;;13.10;99.90;;;13.42;100.00;100272.31;4993355;28;20635;-59
2021/05/19 09:09:47;;;;;;;1.93;1.83;;;13.30;99.90;;;13.97;100.00;100274.81;4992485;28;20574;-60
2021/05/19 09:13:10;;;;;;;1.90;1.60;;;13.30;99.90;;;13.99;100.00;100280.81;5024438;28;20819;-60
2021/05/19 09:20:17;;;;;;;1.90;1.80;;;13.60;99.90;;;14.14;100.00;100275.50;4978838;28;21060;-59
2021/05/19 09:23:29;;;;;;;1.83;1.73;;;13.90;99.90;;;14.25;100.00;100275.03;4995730;28;20347;-60
2021/05/19 09:26:42;;;;;;;1.70;1.60;;;14.20;99.90;;;14.55;100.00;100278.66;5005078;28;20930;-60
2021/05/19 09:30:03;;;;;;;2.03;1.40;;;14.30;99.90;;;14.66;100.00;100273.66;5021614;28;20534;-59
2021/05/19 09:33:28;;;;;;;1.70;1.60;;;14.60;99.90;;;14.35;100.00;100271.06;5021132;28;20613;-60
2021/05/19 09:36:57;;;;;;;3.00;1.67;;;14.90;99.90;;;15.08;100.00;100272.19;5023628;28;20793;-59
2021/05/19 09:40:15;;;;;;;2.50;1.80;;;15.20;99.90;;;15.26;100.00;100261.81;5024139;28;21075;-59
2021/05/19 09:43:27;;;;;;;2.42;1.63;;;15.50;99.90;;;15.55;100.00;100266.34;5018508;28;20498;-59
2021/05/19 09:46:40;;;;;;;2.45;1.70;;;15.80;99.90;;;15.12;100.00;100259.16;5023805;28;20941;-59
2021/05/19 09:49:52;;;;;;;2.40;2.20;;;16.00;99.90;;;15.92;100.00;100259.88;5017539;28;20245;-57
2021/05/19 09:53:19;;;;;;;1.95;1.85;;;16.30;99.90;;;15.96;100.00;100257.59;5020900;28;20391;-58
2021/05/19 09:56:36;;;;;;;1.73;1.52;;;16.50;99.90;;;15.42;100.00;100256.22;5022655;28;20250;-57
2021/05/19 10:00:09;;;;;;;1.95;1.30;;;16.60;99.90;;;15.38;100.00;100251.38;5020498;28;20728;-58
2021/05/19 10:03:39;;;;;;;1.88;1.27;;;16.70;99.90;;;15.63;100.00;100251.91;5017079;28;20237;-58
2021/05/19 10:06:50;;;;;;;1.20;1.10;;;16.70;99.90;;;16.01;100.00;100249.78;4985436;28;20652;-58
2021/05/19 10:10:01;;;;;;;1.70;1.60;;;16.80;99.90;;;16.57;100.00;100249.81;5018033;28;20333;-57
2021/05/19 10:13:13;;;;;;;1.58;1.48;;;17.10;99.90;;;17.08;100.00;100242.19;5024172;28;20358;-57
2021/05/19 10:20:07;;;;;;;4.95;1.40;;;17.90;99.90;;;17.71;100.00;100232.00;5016324;28;20233;-58
2021/05/19 10:23:36;;;;;;;1.30;1.20;;;18.40;99.90;;;18.00;100.00;100228.09;5027118;28;20230;-57
2021/05/19 10:27:29;;;;;;;2.67;1.27;;;18.90;99.90;;;16.70;100.00;100230.97;5026330;28;20503;-58
2021/05/19 10:31:00;;;;;;;2.08;1.20;;;19.30;97.80;;;18.41;100.00;100228.72;4927660;28;20322;-59
2021/05/19 10:34:29;;;;;;;1.40;1.30;;;19.70;94.30;;;18.12;100.00;100218.31;5023382;28;20342;-59
2021/05/19 10:42:01;;;;;;;1.40;1.20;;;20.50;85.20;;;17.98;100.00;100208.53;5002084;28;20234;-59
2021/05/19 10:49:12;;;;;;;2.00;1.33;;;21.00;81.80;;;18.20;100.00;100210.81;5022547;28;20218;-58
2021/05/19 11:04:03;;;;;;;1.73;1.20;;;21.80;63.70;;;18.71;100.00;100195.72;5022553;28;20236;-59
2021/05/19 11:11:57;;;;;;;1.83;1.10;;;22.30;58.80;;;19.52;100.00;100187.88;4903505;28;20335;-59
2021/05/19 11:15:14;;;;;;;1.65;1.50;;;22.60;60.70;;;18.96;100.00;100180.41;4944919;28;20589;-59
2021/05/19 11:30:48;;;;;;;1.38;1.10;;;22.90;53.70;;;18.09;100.00;100178.94;4939891;28;20467;-59
2021/05/19 11:34:23;;;;;;;1.30;1.20;;;22.60;53.80;;;18.30;100.00;100176.00;5022020;28;20719;-57
2021/05/19 11:37:46;;;;;;;2.85;1.33;;;22.30;53.90;;;17.82;100.00;100171.84;5017296;28;20477;-58
2021/05/19 11:41:18;;;;;;;3.10;1.50;;;21.70;54.10;;;17.35;100.00;100179.06;5019464;28;20491;-58
2021/05/19 11:44:48;;;;;;;2.13;1.30;;;20.90;54.50;;;18.04;100.00;100181.47;5026056;28;20706;-58
2021/05/19 11:52:16;;;;;;;2.63;1.33;;;19.80;59.30;;;17.74;100.00;100180.19;5016979;28;20532;-60
2021/05/19 11:55:57;;;;;;;1.60;1.50;;;19.60;61.30;;;17.44;100.00;100179.69;4987913;28;20359;-57
2021/05/19 11:59:08;;;;;;;2.17;1.17;;;19.40;62.00;;;17.57;100.00;100182.41;5023568;28;20466;-59
2021/05/19 12:02:35;;;;;;;2.85;1.40;;;19.30;64.10;;;17.77;100.00;100188.75;5022111;28;20603;-58
2021/05/19 12:05:59;;;;;;;1.20;1.10;;;19.20;65.00;;;17.30;100.00;100194.25;5029372;28;20602;-59
2021/05/19 12:09:22;;;;;;;1.67;1.40;;;19.20;64.00;;;17.72;100.00;100191.22;5025056;28;20537;-58
2021/05/19 12:12:59;;;;;;;1.08;1.08;;;19.20;63.40;;;18.07;100.00;100191.84;5023161;28;20321;-59
2021/05/19 12:16:37;;;;;;;2.03;1.55;;;19.30;62.60;;;16.35;100.00;100193.13;4945078;28;20663;-57
2021/05/19 12:19:52;;;;;;;1.90;1.48;;;19.10;65.00;;;15.48;100.00;100214.16;4973335;28;20623;-58
2021/05/19 12:23:10;;;;;;;1.73;1.27;;;18.40;64.70;;;15.19;100.00;100209.72;5021293;28;20236;-58
2021/05/19 12:26:22;;;;;;;3.60;1.38;;;17.60;67.30;;;15.04;100.00;100211.59;5023763;28;20332;-57
2021/05/19 12:33:32;;;;;;;3.38;1.40;;;16.30;75.80;;;15.05;100.00;100207.88;5019511;28;20238;-57
2021/05/19 12:37:03;;;;;;;1.63;1.52;;;15.90;80.50;;;15.17;100.00;100213.63;5017568;28;20563;-57
2021/05/19 12:40:19;;;;;;;1.50;1.40;;;15.70;85.90;;;15.19;100.00;100216.97;5023441;28;20229;-58
2021/05/19 12:47:18;;;;;;;1.48;1.30;;;15.60;86.80;;;15.25;100.00;100213.50;4959551;28;20390;-58
2021/05/19 12:58:24;;;;;;;1.02;1.00;;;15.70;89.70;;;15.84;100.00;100227.59;5019299;28;20941;-58
2021/05/19 13:01:36;;;;;;;1.40;1.00;;;15.80;89.70;;;16.16;100.00;100224.38;5017299;28;20479;-59
2021/05/19 13:08:35;;;;;;;1.80;0.95;;;16.40;87.50;;;16.41;100.00;100224.75;5020611;28;20617;-56
2021/05/19 13:15:56;;;;;;;1.67;0.70;;;16.80;87.70;;;17.41;100.00;100220.69;5023914;28;20550;-57
2021/05/19 13:19:15;;;;;;;1.00;1.00;;;17.50;83.00;;;17.71;100.00;100219.31;5014507;28;20306;-59
2021/05/19 13:22:40;;;;;;;2.58;1.38;;;18.30;76.80;;;18.36;100.00;100216.84;5020975;28;20489;-60
2021/05/19 13:25:52;;;;;;;1.65;1.33;;;19.00;71.10;;;18.59;100.00;100217.25;5018377;28;20209;-57
2021/05/19 13:32:48;;;;;;;2.00;1.20;;;20.10;63.10;;;18.75;100.00;100205.94;5001603;28;20628;-59
2021/05/19 13:39:23;;;;;;;1.90;1.10;;;20.90;56.70;;;18.13;100.00;100223.53;5003592;28;20253;-59
2021/05/19 13:42:34;;;;;;;2.25;1.20;;;20.70;56.20;;;18.44;100.00;100209.31;5022353;28;20268;-59
2021/05/19 13:45:46;;;;;;;3.08;1.50;;;20.60;56.20;;;18.48;100.00;100212.44;5023216;28;20472;-58
2021/05/19 13:49:15;;;;;;;2.17;1.40;;;20.60;55.80;;;18.74;100.00;100220.53;5022343;28;20224;-57
2021/05/19 13:56:14;;;;;;;2.40;2.20;;;20.40;56.70;;;17.56;100.00;100208.66;5024316;28;20221;-58
2021/05/19 13:59:25;;;;;;;2.53;2.33;;;19.90;58.60;;;17.60;100.00;100223.44;5021541;28;21044;-59
2021/05/19 14:02:39;;;;;;;2.53;2.33;;;19.40;60.00;;;17.24;100.00;100220.22;5026831;28;20734;-58